Time;durP1;ratioP1;P1;durP2;ratioP2;P2;SDS_P1;SDS_P2;PMS_P1;PMS_P2;Temp;Humidity;BMP_temperature;BMP_pressure;BME280_temperature;BME280_humidity;BME280_pressure;Samples;Min_cycle;Max_cycle;Signal;HPM_P1;HPM_P2
2023/01/25 00:00:12;;;;;;;35.40;15.40;;;;;;;-2.95;100.00;100589.01;106941;1275;22523;-70
2023/01/25 00:02:40;;;;;;;29.60;14.10;;;;;;;-2.94;100.00;100589.33;106965;1275;25567;-69
2023/01/25 00:05:10;;;;;;;68.70;29.70;;;;;;;-2.93;100.00;100589.77;106951;1275;25273;-73
2023/01/25 00:07:38;;;;;;;54.90;26.70;;;;;;;-2.93;100.00;100587.48;106121;1275;1003825;-71
2023/01/25 00:10:08;;;;;;;56.70;27.80;;;;;;;-2.95;100.00;100587.73;106785;1275;25423;-71
2023/01/25 00:12:37;;;;;;;42.40;21.50;;;;;;;-2.97;100.00;100585.04;106954;1275;22657;-70
2023/01/25 00:15:06;;;;;;;53.20;26.60;;;;;;;-3.00;100.00;100592.04;106130;1275;1002997;-70
2023/01/25 00:17:36;;;;;;;55.10;24.70;;;;;;;-3.03;100.00;100597.15;107006;1275;25310;-69
2023/01/25 00:20:05;;;;;;;36.90;20.20;;;;;;;-3.06;100.00;100595.83;106896;1275;25436;-72
2023/01/25 00:22:34;;;;;;;95.80;32.30;;;;;;;-3.06;100.00;100594.80;106946;1275;22538;-70
2023/01/25 00:25:02;;;;;;;75.60;27.20;;;;;;;-3.07;100.00;100598.17;107005;1275;25433;-70
2023/01/25 00:27:32;;;;;;;59.60;26.00;;;;;;;-3.08;100.00;100596.99;106075;1275;1003070;-70
2023/01/25 00:30:00;;;;;;;62.80;21.40;;;;;;;-3.09;100.00;100594.05;107041;1275;22559;-69
2023/01/25 00:33:05;;;;;;;89.40;28.20;;;;;;;-3.08;100.00;100598.02;106872;1275;25422;-70
2023/01/25 00:35:34;;;;;;;46.20;18.00;;;;;;;-3.04;100.00;100587.29;106844;1275;25437;-69
2023/01/25 00:38:02;;;;;;;37.80;16.60;;;;;;;-3.02;100.00;100596.02;106180;1275;1003453;-71
2023/01/25 00:40:31;;;;;;;39.50;15.70;;;;;;;-3.00;100.00;100595.74;106650;1275;25410;-70
2023/01/25 00:43:00;;;;;;;35.50;16.10;;;;;;;-2.96;100.00;100595.41;106132;1275;1002792;-69
2023/01/25 00:45:29;;;;;;;142.70;40.00;;;;;;;-2.93;100.00;100592.25;106311;1275;1003611;-70
2023/01/25 00:47:57;;;;;;;164.40;51.40;;;;;;;-2.93;100.00;100591.20;107024;1275;25329;-71
2023/01/25 00:50:26;;;;;;;141.90;43.70;;;;;;;-2.94;100.00;100587.02;106854;1275;25313;-70
2023/01/25 00:52:54;;;;;;;173.00;58.40;;;;;;;-2.96;100.00;100590.25;106129;1275;1003716;-71
2023/01/25 00:55:23;;;;;;;163.30;58.20;;;;;;;-2.95;100.00;100586.70;106997;1275;22530;-72
2023/01/25 00:57:52;;;;;;;131.10;49.30;;;;;;;-2.95;100.00;100582.48;106120;1275;1003154;-70
2023/01/25 01:00:20;;;;;;;77.80;29.50;;;;;;;-2.95;100.00;100583.01;106949;1275;22535;-71
2023/01/25 01:02:52;;;;;;;49.70;22.00;;;;;;;-2.95;100.00;100578.42;106885;1275;25281;-70
2023/01/25 01:05:21;;;;;;;38.00;16.20;;;;;;;-2.94;100.00;100575.36;106191;1275;1003470;-70
2023/01/25 01:07:50;;;;;;;31.20;13.50;;;;;;;-2.92;100.00;100571.39;106272;1275;1003842;-69
2023/01/25 01:10:19;;;;;;;31.70;14.00;;;;;;;-2.89;100.00;100570.54;106831;1275;25567;-71
2023/01/25 01:12:50;;;;;;;26.90;11.70;;;;;;;-2.86;100.00;100563.52;106849;1275;25480;-70
2023/01/25 01:15:19;;;;;;;51.50;19.90;;;;;;;-2.84;100.00;100559.38;106097;1275;1002961;-70
2023/01/25 01:17:47;;;;;;;31.70;14.10;;;;;;;-2.83;100.00;100556.50;106223;1275;1003437;-70
2023/01/25 01:20:16;;;;;;;34.20;12.80;;;;;;;-2.81;100.00;100554.31;107002;1275;25306;-71
2023/01/25 01:22:44;;;;;;;49.30;18.10;;;;;;;-2.83;100.00;100549.96;106941;1275;25288;-69
2023/01/25 01:25:13;;;;;;;57.20;21.50;;;;;;;-2.85;100.00;100548.98;106183;1264;1003842;-70
2023/01/25 01:27:41;;;;;;;42.10;17.70;;;;;;;-2.87;100.00;100547.85;106933;1275;22533;-69
2023/01/25 01:30:10;;;;;;;53.10;21.50;;;;;;;-2.90;100.00;100548.69;106202;1275;1003203;-69
2023/01/25 01:32:39;;;;;;;42.30;14.40;;;;;;;-2.91;100.00;100553.34;106218;1275;1002368;-68
2023/01/25 01:35:08;;;;;;;41.10;16.00;;;;;;;-2.94;100.00;100552.59;106307;1275;1003045;-69
2023/01/25 01:37:41;;;;;;;40.90;15.70;;;;;;;-2.96;100.00;100552.53;106887;1275;25310;-71
2023/01/25 01:40:13;;;;;;;46.60;18.20;;;;;;;-2.98;100.00;100547.30;106796;1275;24242;-73
2023/01/25 01:43:03;;;;;;;63.40;23.30;;;;;;;-2.99;100.00;100543.85;106902;1275;25457;-70
2023/01/25 01:45:42;;;;;;;61.70;21.20;;;;;;;-2.99;100.00;100531.70;106985;1275;25339;-71
2023/01/25 01:48:35;;;;;;;40.80;15.60;;;;;;;-2.97;100.00;100527.87;106916;1253;24237;-71
2023/01/25 01:51:11;;;;;;;47.40;18.10;;;;;;;-2.93;100.00;100525.21;106954;1275;25441;-70
2023/01/25 01:53:42;;;;;;;57.30;21.90;;;;;;;-2.92;100.00;100527.09;106117;1275;1003836;-70
2023/01/25 01:56:13;;;;;;;44.40;18.60;;;;;;;-2.90;100.00;100524.15;106934;1275;23927;-69
2023/01/25 01:58:42;;;;;;;45.10;18.20;;;;;;;-2.88;100.00;100521.44;106093;1275;1004030;-70
2023/01/25 02:01:18;;;;;;;77.40;29.10;;;;;;;-2.89;100.00;100512.29;106097;1275;1003725;-69
2023/01/25 02:03:47;;;;;;;77.30;28.90;;;;;;;-2.92;100.00;100515.44;106860;1275;22523;-69
2023/01/25 02:06:39;;;;;;;66.10;27.80;;;;;;;-2.95;100.00;100514.89;106948;1275;25294;-71
2023/01/25 02:09:08;;;;;;;67.50;27.10;;;;;;;-2.95;100.00;100505.05;106812;1275;22532;-69
2023/01/25 02:11:37;;;;;;;62.30;23.60;;;;;;;-2.96;100.00;100508.42;106784;1275;26949;-70
2023/01/25 02:14:06;;;;;;;69.70;26.80;;;;;;;-2.97;100.00;100509.55;106746;1275;22523;-70
2023/01/25 02:16:36;;;;;;;70.60;28.80;;;;;;;-2.98;100.00;100511.52;106226;1275;1003147;-70
2023/01/25 02:19:05;;;;;;;88.20;35.20;;;;;;;-2.99;100.00;100509.79;105915;1276;1003099;-70
2023/01/25 02:21:38;;;;;;;168.30;56.30;;;;;;;-3.01;100.00;100512.36;106766;1276;22531;-71
2023/01/25 02:24:14;;;;;;;144.20;51.00;;;;;;;-3.02;100.00;100510.48;106876;1276;23856;-70
2023/01/25 02:26:44;;;;;;;166.30;51.10;;;;;;;-3.02;100.00;100507.86;106827;1276;26551;-72
2023/01/25 02:29:13;;;;;;;94.70;33.70;;;;;;;-3.02;100.00;100508.36;106874;1275;25430;-71
2023/01/25 02:31:45;;;;;;;109.50;36.40;;;;;;;-3.01;100.00;100506.17;106896;1275;24211;-70
2023/01/25 02:34:14;;;;;;;69.10;26.60;;;;;;;-2.98;100.00;100498.13;106880;1275;25443;-71
2023/01/25 02:36:43;;;;;;;56.30;23.20;;;;;;;-2.95;100.00;100496.73;106911;1275;26710;-68
2023/01/25 02:39:14;;;;;;;95.90;38.80;;;;;;;-2.91;100.00;100494.59;106867;1275;22525;-70
2023/01/25 02:41:49;;;;;;;211.30;71.50;;;;;;;-2.89;100.00;100488.85;106883;1275;22526;-69
2023/01/25 02:44:23;;;;;;;214.30;72.30;;;;;;;-2.89;100.00;100490.41;106126;1275;1003449;-70
2023/01/25 02:46:51;;;;;;;146.60;53.80;;;;;;;-2.89;100.00;100486.03;106120;1275;1002923;-70
2023/01/25 02:49:20;;;;;;;89.60;37.70;;;;;;;-2.90;100.00;100487.82;106131;1275;1002971;-69
2023/01/25 02:51:54;;;;;;;61.10;26.70;;;;;;;-2.89;100.00;100487.25;106882;1275;23203;-69
2023/01/25 02:54:25;;;;;;;53.70;22.80;;;;;;;-2.88;100.00;100484.73;107047;1275;25482;-69
2023/01/25 02:56:54;;;;;;;40.10;18.20;;;;;;;-2.89;100.00;100484.23;106757;1275;22711;-70
2023/01/25 02:59:23;;;;;;;29.90;14.30;;;;;;;-2.89;100.00;100484.45;106828;1275;25300;-70
2023/01/25 03:01:55;;;;;;;32.70;14.90;;;;;;;-2.89;100.00;100480.71;106233;1275;1003069;-71
2023/01/25 03:04:24;;;;;;;35.00;15.40;;;;;;;-2.88;100.00;100479.11;106156;1275;1003368;-70
2023/01/25 03:06:53;;;;;;;33.80;15.00;;;;;;;-2.92;100.00;100477.69;106238;1275;1002399;-69
2023/01/25 03:09:21;;;;;;;38.10;16.60;;;;;;;-2.94;100.00;100479.77;107044;1275;25468;-69
2023/01/25 03:11:50;;;;;;;40.60;18.90;;;;;;;-2.96;100.00;100476.13;106202;1275;1003102;-71
2023/01/25 03:14:21;;;;;;;45.60;19.40;;;;;;;-2.96;100.00;100475.79;106178;1275;1003246;-73
2023/01/25 03:16:50;;;;;;;40.90;16.70;;;;;;;-2.97;100.00;100476.36;107049;1275;26659;-71
2023/01/25 03:19:21;;;;;;;40.50;18.00;;;;;;;-2.98;100.00;100478.54;106938;1274;214982;-70
2023/01/25 03:21:50;;;;;;;35.80;17.20;;;;;;;-2.99;100.00;100476.48;106942;1275;25304;-70
2023/01/25 03:24:19;;;;;;;34.50;16.80;;;;;;;-3.01;100.00;100476.38;106937;1275;22529;-71
2023/01/25 03:29:44;;;;;;;39.20;17.60;;;;;;;-3.02;100.00;100470.23;107042;1275;25260;-70
2023/01/25 03:32:33;;;;;;;33.90;15.50;;;;;;;-3.01;100.00;100477.27;106365;1275;1002936;-69
2023/01/25 03:35:05;;;;;;;31.60;14.20;;;;;;;-3.01;100.00;100481.88;107042;1275;22543;-70
2023/01/25 03:37:35;;;;;;;30.10;13.40;;;;;;;-3.00;100.00;100483.39;106225;1275;1002994;-70
2023/01/25 03:40:05;;;;;;;31.60;12.30;;;;;;;-2.97;100.00;100479.00;107061;1275;22527;-70
2023/01/25 03:42:36;;;;;;;29.50;13.00;;;;;;;-2.94;100.00;100475.49;106331;1275;1003641;-69
2023/01/25 03:45:05;;;;;;;30.20;13.30;;;;;;;-2.92;100.00;100470.09;106210;1275;1003187;-70
2023/01/25 03:47:35;;;;;;;32.10;14.30;;;;;;;-2.89;100.00;100464.15;107104;1275;26556;-70
2023/01/25 03:50:06;;;;;;;27.20;12.60;;;;;;;-2.87;100.00;100459.98;106827;1275;24519;-70
2023/01/25 03:52:45;;;;;;;28.20;13.20;;;;;;;-2.83;100.00;100461.60;106927;1275;22771;-69
2023/01/25 03:55:20;;;;;;;27.00;12.80;;;;;;;-2.81;100.00;100452.50;106137;1275;1003012;-70
2023/01/25 03:57:51;;;;;;;30.70;13.20;;;;;;;-2.81;100.00;100455.84;106989;1275;26570;-69
2023/01/25 04:00:20;;;;;;;37.70;16.00;;;;;;;-2.82;100.00;100456.06;106898;1275;26706;-71
2023/01/25 04:02:49;;;;;;;29.70;13.70;;;;;;;-2.84;100.00;100460.05;107038;1274;22546;-72
2023/01/25 04:05:19;;;;;;;27.00;12.20;;;;;;;-2.86;100.00;100462.25;106363;1275;1002942;-71
2023/01/25 04:07:48;;;;;;;24.70;12.00;;;;;;;-2.86;100.00;100463.14;106128;1275;1003311;-70
2023/01/25 04:10:19;;;;;;;27.30;11.00;;;;;;;-2.86;100.00;100459.05;106263;1275;1002916;-70
2023/01/25 04:12:48;;;;;;;25.90;11.40;;;;;;;-2.84;100.00;100457.75;107017;1275;25443;-69
2023/01/25 04:15:19;;;;;;;28.70;12.10;;;;;;;-2.82;100.00;100455.02;106979;1274;26508;-70
2023/01/25 04:17:48;;;;;;;27.50;12.90;;;;;;;-2.81;100.00;100456.38;107041;1275;22526;-71
2023/01/25 04:20:22;;;;;;;26.20;12.60;;;;;;;-2.79;100.00;100448.84;107038;1275;25303;-70
2023/01/25 04:22:51;;;;;;;31.10;13.60;;;;;;;-2.77;100.00;100451.73;107053;1275;25230;-70
2023/01/25 04:25:20;;;;;;;26.20;11.30;;;;;;;-2.74;100.00;100448.41;107099;1275;25405;-70
2023/01/25 04:27:52;;;;;;;25.00;11.00;;;;;;;-2.72;100.00;100448.29;107015;1275;22536;-71
2023/01/25 04:30:20;;;;;;;26.00;11.40;;;;;;;-2.70;100.00;100446.09;106281;1275;1003153;-70
2023/01/25 04:32:50;;;;;;;24.80;11.70;;;;;;;-2.69;100.00;100453.50;106961;1275;23772;-69
2023/01/25 04:35:23;;;;;;;;;;;;;;;-2.70;100.00;100451.55;107101;1275;25230;-70
2023/01/25 04:37:55;;;;;;;27.90;11.40;;;;;;;-2.70;100.00;100447.87;106387;1275;1003070;-70
2023/01/25 04:40:26;;;;;;;26.90;11.70;;;;;;;-2.71;100.00;100447.56;106350;1275;1005127;-69
2023/01/25 04:42:56;;;;;;;30.50;12.30;;;;;;;-2.71;100.00;100447.73;107121;1275;25303;-72
2023/01/25 04:45:24;;;;;;;37.70;17.40;;;;;;;-2.70;100.00;100448.06;106317;1275;1003019;-70
2023/01/25 04:47:56;;;;;;;34.40;13.30;;;;;;;-2.73;100.00;100443.59;106318;1274;1003057;-72
2023/01/25 04:50:26;;;;;;;26.50;12.10;;;;;;;-2.76;100.00;100446.39;107028;1275;22520;-72
2023/01/25 04:52:55;;;;;;;36.40;13.60;;;;;;;-2.80;100.00;100449.77;106258;1274;1003447;-70
2023/01/25 04:55:24;;;;;;;29.00;12.00;;;;;;;-2.82;100.00;100455.71;107054;1275;25429;-69
2023/01/25 04:57:53;;;;;;;32.30;12.40;;;;;;;-2.84;100.00;100452.08;107034;1275;23778;-69
2023/01/25 05:00:22;;;;;;;26.80;11.80;;;;;;;-2.84;100.00;100453.69;107077;1275;25432;-70
2023/01/25 05:02:51;;;;;;;40.40;17.80;;;;;;;-2.84;100.00;100455.65;107043;1264;22523;-70
2023/01/25 05:05:20;;;;;;;26.80;12.30;;;;;;;-2.84;100.00;100451.38;107077;1274;22590;-71
2023/01/25 05:07:49;;;;;;;39.00;16.00;;;;;;;-2.82;100.00;100450.91;106294;1275;1002911;-70
2023/01/25 05:10:17;;;;;;;33.30;15.10;;;;;;;-2.80;100.00;100448.54;106999;1275;22523;-69
2023/01/25 05:13:19;;;;;;;25.30;12.30;;;;;;;-2.78;100.00;100441.23;107103;1275;23940;-69
2023/01/25 05:15:49;;;;;;;29.90;14.40;;;;;;;-2.80;100.00;100448.55;106991;1275;22649;-69
2023/01/25 05:18:17;;;;;;;41.80;18.80;;;;;;;-2.81;100.00;100449.33;106311;1275;1002904;-70
2023/01/25 05:20:56;;;;;;;32.90;15.90;;;;;;;-2.83;100.00;100449.91;106306;1275;1004351;-70
2023/01/25 05:23:27;;;;;;;38.40;16.50;;;;;;;-2.85;100.00;100445.27;106997;1275;25452;-69
2023/01/25 05:28:43;;;;;;;29.90;13.20;;;;;;;-2.87;100.00;100462.82;106207;1275;1003352;-71
2023/01/25 05:31:29;;;;;;;27.70;13.10;;;;;;;-2.90;100.00;100472.33;106419;1275;1003064;-70
2023/01/25 05:33:58;;;;;;;65.50;25.00;;;;;;;-2.95;100.00;100478.91;106994;1275;26482;-70
2023/01/25 05:36:26;;;;;;;64.30;23.80;;;;;;;-2.99;100.00;100484.92;106952;1275;24229;-72
2023/01/25 05:38:56;;;;;;;54.80;20.50;;;;;;;-3.03;100.00;100488.46;106281;1274;1003120;-71
2023/01/25 05:41:25;;;;;;;106.10;42.40;;;;;;;-3.08;100.00;100489.92;106294;1275;1003368;-70
2023/01/25 05:43:54;;;;;;;68.80;28.60;;;;;;;-3.13;100.00;100493.00;106296;1275;1003661;-71
2023/01/25 05:46:26;;;;;;;65.60;26.30;;;;;;;-3.19;100.00;100499.95;107098;1275;25233;-70
2023/01/25 05:48:56;;;;;;;42.30;19.40;;;;;;;-3.22;100.00;100500.27;107124;1275;26095;-69
2023/01/25 05:51:26;;;;;;;31.70;15.10;;;;;;;-3.24;100.00;100499.68;107098;1275;25239;-69
2023/01/25 05:53:55;;;;;;;43.40;19.60;;;;;;;-3.27;100.00;100496.99;107018;1267;25434;-72
2023/01/25 05:56:24;;;;;;;43.00;19.40;;;;;;;-3.25;100.00;100497.07;107076;1275;25442;-69
2023/01/25 05:58:53;;;;;;;43.90;18.70;;;;;;;-3.16;100.00;100484.52;106161;1275;1003529;-71
2023/01/25 06:01:22;;;;;;;37.60;17.20;;;;;;;-3.07;100.00;100477.55;106920;1275;22521;-71
2023/01/25 06:03:52;;;;;;;32.80;14.50;;;;;;;-3.01;100.00;100469.85;106306;1275;1002969;-70
2023/01/25 06:06:23;;;;;;;38.10;16.80;;;;;;;-2.99;100.00;100465.02;107040;1275;26732;-70
2023/01/25 06:08:53;;;;;;;31.20;13.60;;;;;;;-2.97;100.00;100465.41;107124;1275;26700;-70
2023/01/25 06:11:22;;;;;;;36.80;16.40;;;;;;;-2.94;100.00;100458.95;107148;1275;25293;-70
2023/01/25 06:13:53;;;;;;;57.70;22.80;;;;;;;-2.94;100.00;100459.97;107070;1275;25479;-69
2023/01/25 06:16:22;;;;;;;46.30;18.50;;;;;;;-2.94;100.00;100459.83;107060;1275;25351;-73
2023/01/25 06:40:44;;;;;;;36.70;17.50;;;;;;;-2.55;100.00;100411.11;103818;1304;1002965;-75
2023/01/25 06:43:11;;;;;;;43.40;24.90;;;;;;;-2.40;100.00;100385.42;105932;1286;203481;-76
2023/01/25 06:45:38;;;;;;;61.30;34.30;;;;;;;-2.37;100.00;100393.04;105507;1286;1002851;-77
2023/01/25 06:48:06;;;;;;;45.60;26.80;;;;;;;-2.34;100.00;100396.09;105606;1279;1003282;-76
2023/01/25 06:50:35;;;;;;;29.10;14.70;;;;;;;-2.32;100.00;100397.39;106158;1284;25411;-77
2023/01/25 06:53:02;;;;;;;28.50;14.30;;;;;;;-2.30;100.00;100396.42;106234;1279;25326;-76
2023/01/25 06:55:31;;;;;;;26.60;13.50;;;;;;;-2.26;100.00;100396.73;106219;1285;25278;-76
2023/01/25 06:57:59;;;;;;;28.60;14.80;;;;;;;-2.20;100.00;100394.51;106144;1285;25320;-77
2023/01/25 07:00:27;;;;;;;31.10;13.90;;;;;;;-2.14;100.00;100389.55;105372;1283;1003724;-76
2023/01/25 07:02:54;;;;;;;25.60;12.10;;;;;;;-2.06;100.00;100382.59;106348;1285;25329;-73
2023/01/25 07:05:22;;;;;;;39.50;18.80;;;;;;;-2.00;100.00;100372.54;106243;1286;22596;-73
2023/01/25 07:07:50;;;;;;;47.20;19.00;;;;;;;-1.88;100.00;100363.59;105366;1282;1003790;-73
2023/01/25 07:10:17;;;;;;;63.80;24.30;;;;;;;-1.72;100.00;100345.77;106140;1286;25319;-73
2023/01/25 07:12:44;;;;;;;59.70;27.50;;;;;;;-1.55;100.00;100338.63;105565;1279;1002877;-74
2023/01/25 07:15:12;;;;;;;76.10;29.50;;;;;;;-1.41;100.00;100322.48;106250;1283;25316;-77
2023/01/25 07:17:39;;;;;;;69.10;25.10;;;;;;;-1.31;100.00;100314.27;106139;1282;25316;-74
2023/01/25 07:20:07;;;;;;;51.80;23.90;;;;;;;-1.21;100.00;100312.67;106116;1283;24441;-72
2023/01/25 07:22:35;;;;;;;46.30;23.60;;;;;;;-1.14;100.00;100308.33;106123;1282;26530;-72
2023/01/25 07:25:03;;;;;;;49.50;23.10;;;;;;;-1.03;100.00;100304.89;105411;1285;1003753;-72
2023/01/25 07:27:34;;;;;;;43.80;23.30;;;;;;;-0.94;100.00;100308.39;106670;1272;25506;-73
2023/01/25 07:30:03;;;;;;;60.30;29.20;;;;;;;-0.82;100.00;100303.96;106610;1272;26484;-72
2023/01/25 07:32:31;;;;;;;51.60;23.10;;;;;;;-0.68;100.00;100307.40;105964;1278;1003709;-72
2023/01/25 07:34:58;;;;;;;47.40;28.10;;;;;;;-0.55;100.00;100309.11;107035;1278;25447;-73
2023/01/25 07:37:26;;;;;;;70.80;32.30;;;;;;;-0.46;100.00;100310.10;106860;1278;25438;-73
2023/01/25 07:39:57;;;;;;;66.20;27.50;;;;;;;-0.34;100.00;100313.52;105860;1279;1002902;-74
2023/01/25 07:42:24;;;;;;;62.10;27.00;;;;;;;-0.15;100.00;100316.54;106836;1279;25243;-76
2023/01/25 07:45:00;;;;;;;41.80;20.20;;;;;;;0.12;100.00;100304.94;106600;1280;25300;-76
2023/01/25 07:47:28;;;;;;;51.40;25.40;;;;;;;0.39;100.00;100302.86;105794;1280;1002516;-75
2023/01/25 07:49:56;;;;;;;40.90;19.40;;;;;;;0.65;100.00;100300.83;106544;1280;25506;-78
2023/01/25 07:52:24;;;;;;;30.50;14.90;;;;;;;0.89;100.00;100296.93;107950;1280;25444;-78
2023/01/25 07:54:51;;;;;;;34.10;18.00;;;;;;;1.10;100.00;100306.36;105993;1280;1003275;-76
2023/01/25 07:57:22;;;;;;;33.90;17.70;;;;;;;1.26;100.00;100312.68;106699;1280;25370;-76
2023/01/25 07:59:51;;;;;;;31.60;14.60;;;;;;;1.40;100.00;100330.40;106971;1280;22543;-77
2023/01/25 08:02:19;;;;;;;33.60;13.40;;;;;;;1.51;100.00;100355.26;106512;1280;25479;-74
2023/01/25 08:04:46;;;;;;;27.70;14.00;;;;;;;1.64;100.00;100381.92;106788;1280;1002375;-75
2023/01/25 08:07:13;;;;;;;30.80;15.30;;;;;;;1.73;100.00;100416.15;108983;1258;22526;-65
2023/01/25 08:09:44;;;;;;;28.90;15.40;;;;;;;1.77;100.00;100471.86;105636;1282;1003075;-65
2023/01/25 08:12:11;;;;;;;31.30;14.90;;;;;;;1.72;100.00;100521.73;106490;1281;25427;-68
2023/01/25 08:14:39;;;;;;;28.80;13.80;;;;;;;1.70;100.00;100579.86;106396;1281;25360;-66
2023/01/25 08:17:07;;;;;;;31.40;14.30;;;;;;;1.75;100.00;100624.64;106569;1281;25260;-66
2023/01/25 08:19:34;;;;;;;24.70;12.00;;;;;;;1.84;100.00;100665.88;106705;1281;25475;-66
2023/01/25 08:22:02;;;;;;;32.40;14.20;;;;;;;1.79;100.00;100712.98;106588;1281;25323;-66
2023/01/25 08:24:29;;;;;;;29.80;14.20;;;;;;;1.65;100.00;100767.31;106449;1281;26724;-69
2023/01/25 08:26:56;;;;;;;32.70;15.80;;;;;;;1.63;100.00;100807.27;106581;1281;25361;-71
2023/01/25 08:29:26;;;;;;;32.10;13.20;;;;;;;1.68;100.00;100843.95;106767;1281;22537;-67
2023/01/25 08:31:54;;;;;;;28.50;14.10;;;;;;;1.65;100.00;100872.91;106473;1281;25361;-69
2023/01/25 08:34:21;;;;;;;34.20;15.30;;;;;;;1.62;100.00;100905.23;108180;1281;25421;-66
2023/01/25 08:36:48;;;;;;;37.30;19.10;;;;;;;1.74;100.00;100913.04;105740;1281;1003030;-68
2023/01/25 08:39:21;;;;;;;31.70;15.00;;;;;;;1.96;100.00;100915.48;106594;1276;26528;-67
2023/01/25 08:41:48;;;;;;;31.60;15.70;;;;;;;2.09;100.00;100926.54;105820;1281;1003154;-67
2023/01/25 08:44:16;;;;;;;28.00;13.60;;;;;;;2.16;100.00;100941.23;105819;1276;1003071;-69
2023/01/25 08:46:45;;;;;;;25.60;13.00;;;;;;;2.09;100.00;100970.67;106598;1281;24238;-68
2023/01/25 08:49:12;;;;;;;28.20;14.00;;;;;;;1.95;100.00;100994.67;106534;1281;25810;-68
2023/01/25 08:51:40;;;;;;;29.80;13.50;;;;;;;1.88;100.00;101011.08;105765;1281;1003412;-68
2023/01/25 08:54:11;;;;;;;35.00;14.40;;;;;;;1.79;100.00;101034.52;105816;1281;1002948;-69
2023/01/25 08:56:39;;;;;;;36.80;16.60;;;;;;;1.82;100.00;101045.93;105695;1281;1003229;-69
2023/01/25 08:59:09;;;;;;;34.70;16.30;;;;;;;2.02;100.00;101036.55;106122;1281;25438;-68
2023/01/25 09:01:37;;;;;;;39.90;21.80;;;;;;;2.17;100.00;101035.80;106825;1281;25310;-69
2023/01/25 09:04:04;;;;;;;39.50;19.80;;;;;;;2.30;100.00;101032.89;109182;1281;1002190;-69
2023/01/25 09:06:35;;;;;;;40.60;20.70;;;;;;;2.37;100.00;101040.17;106904;1281;23351;-67
2023/01/25 09:09:03;;;;;;;34.60;16.90;;;;;;;2.45;100.00;101043.90;105681;1281;1015550;-68
2023/01/25 09:11:32;;;;;;;35.50;17.20;;;;;;;2.47;100.00;101056.07;105644;1276;1003012;-68
2023/01/25 09:13:59;;;;;;;35.90;17.40;;;;;;;2.45;100.00;101072.90;105673;1281;1003699;-67
2023/01/25 09:16:29;;;;;;;38.30;19.00;;;;;;;2.57;100.00;101078.60;105644;1273;1003527;-68
2023/01/25 09:18:57;;;;;;;38.80;18.40;;;;;;;2.69;100.00;101088.40;108542;1276;25450;-69
2023/01/25 09:21:26;;;;;;;43.90;20.80;;;;;;;2.82;100.00;101094.52;106392;1281;23078;-74
2023/01/25 09:23:54;;;;;;;45.20;22.00;;;;;;;2.97;100.00;101095.35;105761;1281;1003696;-76
2023/01/25 09:26:35;;;;;;;50.40;24.60;;;;;;;3.12;100.00;101107.23;106512;1281;25353;-76
2023/01/25 09:29:02;;;;;;;59.90;29.70;;;;;;;3.23;100.00;101118.16;105766;1281;1003544;-77
2023/01/25 09:31:42;;;;;;;43.90;20.40;;;;;;;3.36;100.00;101132.29;105817;1281;1003490;-76
2023/01/25 09:34:35;;;;;;;53.30;25.10;;;;;;;3.42;100.00;101162.54;106397;1279;26084;-76
2023/01/25 09:37:02;;;;;;;42.80;22.00;;;;;;;3.41;100.00;101192.41;106602;1273;25875;-76
2023/01/25 09:39:32;;;;;;;31.80;16.50;;;;;;;3.46;100.00;101206.89;106359;1278;26528;-79
2023/01/25 09:42:18;;;;;;;49.20;26.40;;;;;;;3.52;100.00;101215.05;106595;1273;22657;-78
2023/01/25 09:44:53;;;;;;;38.20;20.70;;;;;;;3.60;100.00;101229.36;106505;1281;25332;-77
2023/01/25 09:47:28;;;;;;;35.10;18.20;;;;;;;3.72;100.00;101235.76;106501;1281;23807;-72
2023/01/25 09:50:22;;;;;;;43.60;20.80;;;;;;;3.83;100.00;101237.89;106419;1273;25404;-76
2023/01/25 09:53:11;;;;;;;37.00;17.70;;;;;;;3.93;100.00;101245.31;106423;1282;25421;-74
2023/01/25 09:55:39;;;;;;;51.70;23.40;;;;;;;3.97;100.00;101265.35;106483;1282;25314;-74
2023/01/25 09:58:12;;;;;;;34.00;16.70;;;;;;;3.97;100.00;101284.98;106500;1281;25593;-76
2023/01/25 10:00:59;;;;;;;;;;;;;;;3.96;100.00;101299.16;105699;1282;1003701;-77
2023/01/25 10:03:38;;;;;;;39.20;19.10;;;;;;;4.03;100.00;101306.02;106232;1282;23914;-75
2023/01/25 10:06:05;;;;;;;32.90;17.00;;;;;;;4.14;100.00;101304.27;107766;1282;22546;-78
2023/01/25 10:08:51;;;;;;;31.30;15.80;;;;;;;4.21;100.00;101312.55;105645;1282;1003624;-78
2023/01/25 10:11:24;;;;;;;26.90;13.90;;;;;;;4.21;100.00;101333.42;106193;1282;1003766;-81
2023/01/25 10:13:51;;;;;;;32.50;13.90;;;;;;;4.20;100.00;101342.42;107949;1278;22651;-81
2023/01/25 10:16:28;;;;;;;32.40;14.10;;;;;;;4.14;100.00;101359.77;107902;1279;25463;-77
2023/01/25 10:18:56;;;;;;;36.60;17.30;;;;;;;4.13;100.00;101361.27;107921;1277;24386;-77
2023/01/25 10:26:28;;;;;;;56.30;29.60;;;;;;;4.44;100.00;101419.78;104079;1299;1003831;-70
2023/01/25 10:29:29;;;;;;;41.60;20.90;;;;;;;4.43;100.00;101437.54;106138;1288;1003392;-78
2023/01/25 10:32:42;;;;;;;33.30;16.60;;;;;;;4.41;100.00;101449.65;107059;1288;23909;-76
2023/01/25 10:35:25;;;;;;;41.40;21.30;;;;;;;4.44;100.00;101453.37;106132;1288;23134;-68
2023/01/25 10:38:29;;;;;;;38.20;19.10;;;;;;;4.42;100.00;101464.75;106077;1280;259594;-70
2023/01/25 10:41:06;;;;;;;30.40;13.60;;;;;;;4.41;100.00;101469.13;108044;1271;25418;-76
2023/01/25 10:43:34;;;;;;;24.70;11.10;;;;;;;4.42;100.00;101467.77;108563;1267;22468;-76
2023/01/25 10:46:24;;;;;;;25.40;12.30;;;;;;;4.35;100.00;101480.02;107591;1267;1002164;-76
2023/01/25 10:48:52;;;;;;;32.30;14.90;;;;;;;4.34;100.00;101480.79;107442;1267;25413;-75
2023/01/25 10:51:31;;;;;;;68.30;21.80;;;;;;;4.44;100.00;101470.33;107933;1274;26649;-78
2023/01/25 10:54:02;;;;;;;44.20;18.60;;;;;;;4.57;100.00;101459.71;107454;1267;1002497;-76
2023/01/25 10:56:33;;;;;;;30.60;15.70;;;;;;;4.65;100.00;101463.48;108038;1274;24244;-77
2023/01/25 10:59:22;;;;;;;57.80;25.10;;;;;;;4.68;100.00;101468.10;107820;1274;25449;-69
2023/01/25 11:01:49;;;;;;;65.30;27.40;;;;;;;4.74;100.00;101470.39;107329;1266;22524;-68
2023/01/25 11:04:34;;;;;;;85.80;32.30;;;;;;;4.85;100.00;101467.20;106388;1267;1002905;-69
2023/01/25 11:07:03;;;;;;;70.90;39.10;;;;;;;4.97;100.00;101450.21;107300;1267;22643;-70
2023/01/25 11:09:32;;;;;;;;;;;;;;;5.00;100.00;101438.89;108038;1270;25226;-76
2023/01/25 11:11:59;;;;;;;;;;;;;;;5.02;100.00;101446.45;108191;1268;25244;-78
2023/01/25 11:14:28;;;;;;;;;;;;;;;5.02;100.00;101459.34;107346;1270;1002526;-77
2023/01/25 11:16:55;;;;;;;;;;;;;;;4.95;100.00;101473.70;108190;1275;24209;-76
2023/01/25 11:19:26;;;;;;;;;;;;;;;4.85;100.00;101490.23;108116;1274;22968;-76
2023/01/25 11:21:53;;;;;;;;;;;;;;;4.85;100.00;101487.75;107504;1275;22507;-70
2023/01/25 11:24:21;;;;;;;;;;;;;;;4.83;100.00;101495.55;107516;1267;22494;-77
2023/01/25 11:26:48;;;;;;;;;;;;;;;4.82;100.00;101495.42;108060;1270;25863;-75
2023/01/25 11:29:15;;;;;;;;;;;;;;;4.80;100.00;101495.93;107983;1267;22517;-76
2023/01/25 11:31:47;;;;;;;;;;;;;;;4.75;100.00;101504.45;107800;1273;22443;-76
2023/01/25 11:34:15;;;;;;;;;;;;;;;4.72;100.00;101509.50;107734;1274;22504;-75
2023/01/25 11:36:51;;;;;;;;;;;;;;;4.63;100.00;101531.66;107039;1269;1003575;-75
2023/01/25 11:39:21;;;;;;;;;;;;;;;4.56;100.00;101531.93;106427;1267;1002995;-68
2023/01/25 11:41:51;;;;;;;;;;;;;;;4.50;100.00;101536.39;107537;1274;25394;-74
2023/01/25 11:44:32;;;;;;;;;;;;;;;4.47;100.00;101532.11;107038;1274;1002862;-75
2023/01/25 11:47:22;;;;;;;;;;;;;;;4.54;100.00;101519.68;107352;1270;23843;-71